Bigbee Valley, Mississippi
Current Conditions -  °F | °C
As of 5:45 PM on Sunday 25 Jan 2015 (Local Time) from KGTR Reporting Station
Scattered Clouds Scattered Clouds  
Wind Chill: 54°   Ceiling: Unl
Heat Index: 54°   Visibility: 10mi
Dew Point: 37°   Wind: 8mph
Humidity: 54%   Direction: 280°W
Pressure: 29.78"   Gusts: NA
Location:  33.2136°N, 88.5275°W
Report Text: KGTR 252345Z 28007KT 10SM SCT050 12/03 A2978
Loading
Personal Weather Stations






























Interactive Weather Map New forecast layout! Learn more

10-Day Weather Forecast

Advertisements
Track Severe Weather on mobile